| time (UTC) | temp C | wind direction | speed KPH | gust KPH | rain 1hr cm | rain 24hr cm | rain mn cm | humidity % | barometer mb |
| 20260503193047 | 24 | 39 | 6.4 | 14.5 | 0.00 | 0.00 | 0.00 | 50 | 1011.9 |
| 20260503192535 | 24 | 90 | 3.2 | 12.9 | 0.00 | 0.00 | 0.00 | 51 | 1011.9 |
| 20260503192039 | 24 | 355 | 3.2 | 12.9 | 0.00 | 0.00 | 0.00 | 52 | 1012.0 |
| 20260503191547 | 24 | 26 | 1.6 | 12.9 | 0.00 | 0.00 | 0.00 | 52 | 1012.0 |
| 20260503191039 | 23 | 49 | 6.4 | 12.9 | 0.00 | 0.00 | 0.00 | 51 | 1012.0 |
| 20260503190538 | 24 | 90 | 6.4 | 12.9 | 0.00 | 0.00 | 0.00 | 51 | 1012.1 |
| 20260503190057 | 24 | 42 | 6.4 | 12.9 | 0.00 | 0.00 | 0.00 | 50 | 1012.2 |
| 20260503185535 | 24 | 43 | 3.2 | 8.0 | 0.00 | 0.00 | 0.00 | 52 | 1012.2 |
| 20260503185036 | 23 | 62 | 3.2 | 8.0 | 0.00 | 0.00 | 0.00 | 53 | 1012.3 |
| 20260503184551 | 23 | 116 | 3.2 | 14.5 | 0.00 | 0.00 | 0.00 | 54 | 1012.3 |
| 20260503184036 | 23 | 64 | 4.8 | 14.5 | 0.00 | 0.00 | 0.00 | 54 | 1012.4 |
| 20260503183538 | 23 | 90 | 4.8 | 12.9 | 0.00 | 0.00 | 0.00 | 55 | 1012.4 |
| 20260503183052 | 23 | 48 | 6.4 | 14.5 | 0.00 | 0.00 | 0.00 | 56 | 1012.5 |
| 20260503182539 | 23 | 178 | 3.2 | 14.5 | 0.00 | 0.00 | 0.00 | 55 | 1012.4 |
| 20260503182036 | 23 | 183 | 6.4 | 11.3 | 0.00 | 0.00 | 0.00 | 54 | 1012.5 |
| 20260503181550 | 23 | 183 | 3.2 | 6.4 | 0.00 | 0.00 | 0.00 | 54 | 1012.5 |
| 20260503181036 | 23 | 231 | 1.6 | 11.3 | 0.00 | 0.00 | 0.00 | 54 | 1012.6 |
| 20260503180539 | 22 | 48 | 3.2 | 19.3 | 0.00 | 0.00 | 0.00 | 54 | 1012.6 |
| 20260503180053 | 23 | 41 | 4.8 | 19.3 | 0.00 | 0.00 | 0.00 | 54 | 1012.7 |
| 20260503175538 | 23 | 48 | 6.4 | 19.3 | 0.00 | 0.00 | 0.00 | 51 | 1012.7 |
| 20260503175035 | 24 | 39 | 1.6 | 6.4 | 0.00 | 0.00 | 0.00 | 50 | 1012.7 |
| 20260503174548 | 25 | 107 | 3.2 | 6.4 | 0.00 | 0.00 | 0.00 | 50 | 1012.8 |
| 20260503174039 | 24 | 121 | 1.6 | 4.8 | 0.00 | 0.00 | 0.00 | 50 | 1012.8 |
| 20260503173539 | 24 | 99 | 1.6 | 6.4 | 0.00 | 0.00 | 0.00 | 50 | 1012.8 |
| 20260503173136 | 25 | 156 | 1.6 | 6.4 | 0.00 | 0.00 | 0.00 | 48 | 1012.8 |
| 20260503172538 | 25 | 67 | 1.6 | 4.8 | 0.00 | 0.00 | 0.00 | 48 | 1012.9 |
| 20260503172035 | 25 | 121 | 1.6 | 4.8 | 0.00 | 0.00 | 0.00 | 47 | 1012.9 |
| 20260503171548 | 25 | 71 | 1.6 | 3.2 | 0.00 | 0.00 | 0.00 | 49 | 1013.0 |
| 20260503171036 | 24 | 99 | 1.6 | 3.2 | 0.00 | 0.00 | 0.00 | 50 | 1012.9 |
| 20260503170536 | 23 | 112 | 1.6 | 3.2 | 0.00 | 0.00 | 0.00 | 51 | 1012.9 |
| 20260503150535 | 16 | 193 | 1.6 | 1.6 | 0.00 | 0.00 | 0.00 | 80 | 1013.3 |
| 20260503131035 | 10 | 0 | 0.0 | 3.2 | 0.00 | 0.00 | 0.00 | 94 | 1013.2 |
| 20260503130534 | 10 | 0 | 0.0 | 3.2 | 0.00 | 0.00 | 0.00 | 94 | 1013.2 |
| 20260503110538 | 11 | 344 | 1.6 | 3.2 | 0.00 | 0.00 | 0.00 | 92 | 1013.4 |
| 20260503081556 | 13 | 183 | 3.2 | 4.8 | 0.00 | 0.00 | 0.00 | 90 | 1013.8 |
| 20260503081038 | 13 | 183 | 0.0 | 3.2 | 0.00 | 0.00 | 0.00 | 89 | 1013.9 |
| 20260503080539 | 13 | 171 | 0.0 | 3.2 | 0.00 | 0.00 | 0.00 | 88 | 1013.9 |
| 20260503072536 | 14 | 355 | 0.0 | 6.4 | 0.00 | 0.00 | 0.00 | 88 | 1013.8 |
| 20260503072036 | 14 | 197 | 6.4 | 6.4 | 0.00 | 0.00 | 0.00 | 89 | 1013.7 |
| 20260503071548 | 14 | 188 | 3.2 | 6.4 | 0.00 | 0.00 | 0.00 | 88 | 1013.7 |
| 20260503071035 | 14 | 183 | 3.2 | 4.8 | 0.00 | 0.00 | 0.00 | 87 | 1013.7 |
| 20260503070535 | 14 | 183 | 3.2 | 4.8 | 0.00 | 0.00 | 0.00 | 87 | 1013.7 |
| 20260503055036 | 16 | 28 | 0.0 | 3.2 | 0.00 | 0.00 | 0.00 | 80 | 1013.3 |
| 20260503054545 | 16 | 90 | 0.0 | 3.2 | 0.00 | 0.00 | 0.00 | 81 | 1013.4 |
| 20260503054036 | 16 | 0 | 1.6 | 3.2 | 0.00 | 0.00 | 0.00 | 82 | 1013.4 |
| 20260503053535 | 16 | 200 | 1.6 | 3.2 | 0.00 | 0.00 | 0.00 | 81 | 1013.4 |
| 20260503053045 | 16 | 220 | 0.0 | 3.2 | 0.00 | 0.00 | 0.00 | 78 | 1013.4 |
| 20260503052535 | 16 | 0 | 0.0 | 3.2 | 0.00 | 0.00 | 0.00 | 77 | 1013.4 |
| 20260503052035 | 16 | 90 | 0.0 | 3.2 | 0.00 | 0.00 | 0.00 | 79 | 1013.4 |
| 20260503051542 | 16 | 0 | 0.0 | 3.2 | 0.00 | 0.00 | 0.00 | 82 | 1013.4 |
| 20260503051035 | 17 | 205 | 1.6 | 3.2 | 0.00 | 0.00 | 0.00 | 80 | 1013.3 |
| 20260503050536 | 17 | 183 | 0.0 | 3.2 | 0.00 | 0.00 | 0.00 | 80 | 1013.3 |
| 20260503050051 | 17 | 141 | 0.0 | 3.2 | 0.00 | 0.00 | 0.00 | 78 | 1013.2 |
| 20260503045534 | 17 | 90 | 0.0 | 4.8 | 0.00 | 0.00 | 0.00 | 78 | 1013.2 |
| 20260503045035 | 17 | 183 | 0.0 | 6.4 | 0.00 | 0.00 | 0.00 | 79 | 1013.3 |
| 20260503044548 | 17 | 183 | 3.2 | 6.4 | 0.00 | 0.00 | 0.00 | 79 | 1013.1 |
| 20260503044035 | 17 | 198 | 1.6 | 3.2 | 0.00 | 0.00 | 0.00 | 77 | 1013.1 |
| 20260503043536 | 18 | 165 | 1.6 | 3.2 | 0.00 | 0.00 | 0.00 | 77 | 1013.0 |
| 20260503043046 | 18 | 183 | 1.6 | 3.2 | 0.00 | 0.00 | 0.00 | 75 | 1013.0 |
| 20260503042537 | 18 | 124 | 1.6 | 3.2 | 0.00 | 0.00 | 0.00 | 66 | 1013.1 |
| 20260503042037 | 18 | 90 | 1.6 | 3.2 | 0.00 | 0.00 | 0.00 | 69 | 1013.0 |
| 20260503041546 | 18 | 90 | 1.6 | 3.2 | 0.00 | 0.00 | 0.00 | 68 | 1012.9 |
| 20260503041039 | 18 | 90 | 1.6 | 4.8 | 0.00 | 0.00 | 0.00 | 68 | 1012.9 |
| 20260503040537 | 18 | 243 | 1.6 | 4.8 | 0.00 | 0.00 | 0.00 | 68 | 1012.8 |
| 20260503040044 | 19 | 220 | 3.2 | 4.8 | 0.00 | 0.00 | 0.00 | 69 | 1012.7 |
| 20260503035536 | 20 | 243 | 1.6 | 3.2 | 0.00 | 0.00 | 0.00 | 63 | 1012.6 |
| 20260503035040 | 20 | 90 | 1.6 | 4.8 | 0.00 | 0.00 | 0.00 | 63 | 1012.5 |
| 20260503034550 | 20 | 340 | 0.0 | 4.8 | 0.00 | 0.00 | 0.00 | 63 | 1012.4 |
| 20260503034035 | 20 | 34 | 1.6 | 6.4 | 0.00 | 0.00 | 0.00 | 63 | 1012.3 |
| 20260503033536 | 20 | 30 | 3.2 | 6.4 | 0.00 | 0.00 | 0.00 | 63 | 1012.3 |
| 20260503033039 | 20 | 90 | 3.2 | 4.8 | 0.00 | 0.00 | 0.00 | 63 | 1012.2 |
| 20260503032537 | 20 | 90 | 3.2 | 4.8 | 0.00 | 0.00 | 0.00 | 62 | 1012.2 |
| 20260503032034 | 20 | 337 | 1.6 | 9.7 | 0.00 | 0.00 | 0.00 | 62 | 1012.0 |
| 20260503031555 | 21 | 90 | 3.2 | 9.7 | 0.00 | 0.00 | 0.00 | 60 | 1012.0 |
| 20260503031038 | 21 | 90 | 3.2 | 4.8 | 0.00 | 0.00 | 0.00 | 60 | 1011.9 |
| 20260503030538 | 21 | 90 | 3.2 | 4.8 | 0.00 | 0.00 | 0.00 | 59 | 1011.9 |
| 20260503030049 | 21 | 0 | 1.6 | 6.4 | 0.00 | 0.00 | 0.00 | 59 | 1011.8 |
| 20260503025536 | 21 | 339 | 3.2 | 6.4 | 0.00 | 0.00 | 0.00 | 57 | 1011.9 |
| 20260503025035 | 22 | 90 | 3.2 | 6.4 | 0.00 | 0.00 | 0.00 | 57 | 1011.8 |
| 20260503024548 | 22 | 90 | 1.6 | 6.4 | 0.00 | 0.00 | 0.00 | 56 | 1011.8 |
| 20260503024037 | 22 | 337 | 3.2 | 6.4 | 0.00 | 0.00 | 0.00 | 56 | 1011.7 |
| 20260503023537 | 22 | 90 | 1.6 | 6.4 | 0.00 | 0.00 | 0.00 | 56 | 1011.7 |
| 20260503023045 | 22 | 268 | 1.6 | 6.4 | 0.00 | 0.00 | 0.00 | 54 | 1011.7 |
| 20260503022536 | 22 | 90 | 1.6 | 6.4 | 0.00 | 0.00 | 0.00 | 54 | 1011.7 |
| 20260503022036 | 23 | 90 | 1.6 | 6.4 | 0.00 | 0.00 | 0.00 | 54 | 1011.6 |
| 20260503021549 | 23 | 90 | 1.6 | 8.0 | 0.00 | 0.00 | 0.00 | 53 | 1011.6 |
| 20260503021036 | 23 | 355 | 3.2 | 8.0 | 0.00 | 0.00 | 0.00 | 53 | 1011.6 |
| 20260503020538 | 23 | 90 | 3.2 | 8.0 | 0.00 | 0.00 | 0.00 | 52 | 1011.6 |
| 20260503020056 | 23 | 90 | 4.8 | 9.7 | 0.00 | 0.00 | 0.00 | 51 | 1011.6 |
| 20260503015537 | 23 | 337 | 4.8 | 9.7 | 0.00 | 0.00 | 0.00 | 50 | 1011.6 |
| 20260503015036 | 23 | 90 | 3.2 | 16.1 | 0.00 | 0.00 | 0.00 | 51 | 1011.6 |
| 20260503014553 | 23 | 10 | 1.6 | 16.1 | 0.00 | 0.00 | 0.00 | 50 | 1011.6 |
| 20260503014033 | 24 | 12 | 6.4 | 16.1 | 0.00 | 0.00 | 0.00 | 50 | 1011.6 |
| 20260503013537 | 24 | 9 | 4.8 | 9.7 | 0.00 | 0.00 | 0.00 | 50 | 1011.7 |
| 20260503013048 | 24 | 355 | 4.8 | 11.3 | 0.00 | 0.00 | 0.00 | 49 | 1011.7 |
| 20260503012534 | 24 | 340 | 3.2 | 11.3 | 0.00 | 0.00 | 0.00 | 49 | 1011.7 |
| 20260503012037 | 24 | 90 | 4.8 | 11.3 | 0.00 | 0.00 | 0.00 | 49 | 1011.7 |
| 20260503011557 | 24 | 339 | 3.2 | 12.9 | 0.00 | 0.00 | 0.00 | 49 | 1011.7 |
| 20260503011036 | 24 | 347 | 1.6 | 14.5 | 0.00 | 0.00 | 0.00 | 50 | 1011.7 |
| 20260503010536 | 24 | 339 | 4.8 | 14.5 | 0.00 | 0.00 | 0.00 | 49 | 1011.6 |
| 20260503010044 | 24 | 34 | 3.2 | 14.5 | 0.00 | 0.00 | 0.00 | 52 | 1011.7 |
| 20260503005537 | 24 | 12 | 4.8 | 14.5 | 0.00 | 0.00 | 0.00 | 50 | 1011.7 |
| 20260503005034 | 24 | 5 | 8.0 | 17.7 | 0.00 | 0.00 | 0.00 | 52 | 1011.7 |
| 20260503004606 | 24 | 9 | 9.7 | 17.7 | 0.00 | 0.00 | 0.00 | 51 | 1011.7 |
| 20260503004034 | 24 | 34 | 6.4 | 14.5 | 0.00 | 0.00 | 0.00 | 49 | 1011.7 |
| 20260503003535 | 24 | 340 | 4.8 | 12.9 | 0.00 | 0.00 | 0.00 | 51 | 1011.9 |
| 20260503003048 | 24 | 32 | 4.8 | 14.5 | 0.00 | 0.00 | 0.00 | 51 | 1011.8 |
| 20260503002536 | 24 | 46 | 4.8 | 14.5 | 0.00 | 0.00 | 0.00 | 50 | 1011.8 |
| 20260503002037 | 24 | 90 | 6.4 | 14.5 | 0.00 | 0.00 | 0.00 | 50 | 1011.8 |
| 20260503001549 | 24 | 355 | 3.2 | 11.3 | 0.00 | 0.00 | 0.00 | 51 | 1011.8 |
| 20260503001035 | 24 | 45 | 3.2 | 11.3 | 0.00 | 0.00 | 0.00 | 51 | 1011.9 |
| 20260503000535 | 24 | 24 | 4.8 | 14.5 | 0.00 | 0.00 | 0.00 | 53 | 1011.9 |
| 20260502235535 | 24 | 349 | 8.0 | 14.5 | 0.00 | 0.00 | 0.00 | 52 | 1012.0 |
| 20260502235035 | 23 | 12 | 6.4 | 19.3 | 0.00 | 0.00 | 0.00 | 52 | 1012.1 |
| 20260502234547 | 23 | 30 | 4.8 | 19.3 | 0.00 | 0.00 | 0.00 | 52 | 1012.0 |
| 20260502234035 | 23 | 345 | 8.0 | 19.3 | 0.00 | 0.00 | 0.00 | 55 | 1012.1 |
| 20260502233536 | 23 | 39 | 6.4 | 14.5 | 0.00 | 0.00 | 0.00 | 54 | 1012.2 |
| 20260502233045 | 23 | 18 | 6.4 | 16.1 | 0.00 | 0.00 | 0.00 | 54 | 1012.2 |
| 20260502232538 | 23 | 90 | 6.4 | 16.1 | 0.00 | 0.00 | 0.00 | 53 | 1012.4 |
| 20260502232035 | 23 | 5 | 6.4 | 16.1 | 0.00 | 0.00 | 0.00 | 54 | 1012.4 |
| 20260502231551 | 23 | 12 | 6.4 | 16.1 | 0.00 | 0.00 | 0.00 | 55 | 1012.5 |
| 20260502231037 | 23 | 28 | 3.2 | 16.1 | 0.00 | 0.00 | 0.00 | 54 | 1012.6 |
| 20260502230537 | 23 | 39 | 6.4 | 16.1 | 0.00 | 0.00 | 0.00 | 54 | 1012.7 |
| 20260502230041 | 24 | 90 | 3.2 | 12.9 | 0.00 | 0.00 | 0.00 | 53 | 1012.7 |
| 20260502225535 | 23 | 23 | 4.8 | 14.5 | 0.00 | 0.00 | 0.00 | 53 | 1012.7 |
| 20260502225036 | 23 | 90 | 6.4 | 14.5 | 0.00 | 0.00 | 0.00 | 55 | 1012.8 |
| 20260502224555 | 23 | 342 | 4.8 | 20.9 | 0.00 | 0.00 | 0.00 | 54 | 1012.9 |
| 20260502224035 | 23 | 34 | 4.8 | 20.9 | 0.00 | 0.00 | 0.00 | 52 | 1012.9 |
| 20260502223535 | 24 | 3 | 6.4 | 20.9 | 0.00 | 0.00 | 0.00 | 54 | 1013.1 |
| 20260502223048 | 23 | 90 | 3.2 | 12.9 | 0.00 | 0.00 | 0.00 | 54 | 1013.0 |
| 20260502222536 | 23 | 10 | 3.2 | 16.1 | 0.00 | 0.00 | 0.00 | 53 | 1013.0 |
| 20260502222035 | 23 | 9 | 4.8 | 16.1 | 0.00 | 0.00 | 0.00 | 54 | 1013.1 |
| 20260502221551 | 23 | 55 | 6.4 | 16.1 | 0.00 | 0.00 | 0.00 | 52 | 1013.1 |
| 20260502221035 | 23 | 145 | 1.6 | 16.1 | 0.00 | 0.00 | 0.00 | 54 | 1013.1 |
| 20260502220535 | 23 | 90 | 3.2 | 16.1 | 0.00 | 0.00 | 0.00 | 53 | 1013.2 |
| 20260502220050 | 23 | 90 | 8.0 | 14.5 | 0.00 | 0.00 | 0.00 | 55 | 1013.2 |
| 20260502215535 | 23 | 30 | 3.2 | 12.9 | 0.00 | 0.00 | 0.00 | 54 | 1013.2 |
| 20260502215034 | 23 | 268 | 1.6 | 9.7 | 0.00 | 0.00 | 0.00 | 55 | 1013.4 |
| 20260502214549 | 23 | 149 | 3.2 | 9.7 | 0.00 | 0.00 | 0.00 | 54 | 1013.4 |
| 20260502214036 | 23 | 90 | 3.2 | 9.7 | 0.00 | 0.00 | 0.00 | 55 | 1013.5 |
| 20260502213536 | 23 | 34 | 3.2 | 9.7 | 0.00 | 0.00 | 0.00 | 56 | 1013.5 |
| 20260502213040 | 22 | 171 | 1.6 | 12.9 | 0.00 | 0.00 | 0.00 | 56 | 1013.6 |
| 20260502212537 | 22 | 17 | 6.4 | 12.9 | 0.00 | 0.00 | 0.00 | 57 | 1013.6 |
| 20260502212036 | 22 | 90 | 1.6 | 14.5 | 0.00 | 0.00 | 0.00 | 57 | 1013.7 |
| 20260502211546 | 22 | 55 | 4.8 | 14.5 | 0.00 | 0.00 | 0.00 | 58 | 1013.8 |
| 20260502211037 | 22 | 12 | 3.2 | 16.1 | 0.00 | 0.00 | 0.00 | 59 | 1013.7 |
| 20260502210535 | 22 | 25 | 8.0 | 16.1 | 0.00 | 0.00 | 0.00 | 56 | 1013.7 |
| 20260502210045 | 22 | 340 | 1.6 | 12.9 | 0.00 | 0.00 | 0.00 | 57 | 1013.9 |
| 20260502205537 | 22 | 74 | 4.8 | 12.9 | 0.00 | 0.00 | 0.00 | 55 | 1013.9 |
| 20260502205036 | 21 | 106 | 3.2 | 14.5 | 0.00 | 0.00 | 0.00 | 58 | 1013.9 |
| 20260502204549 | 21 | 141 | 4.8 | 16.1 | 0.00 | 0.00 | 0.00 | 57 | 1014.0 |
| 20260502204035 | 21 | 40 | 8.0 | 16.1 | 0.00 | 0.00 | 0.00 | 57 | 1014.0 |
| 20260502203535 | 21 | 213 | 3.2 | 14.5 | 0.00 | 0.00 | 0.00 | 57 | 1014.1 |
| 20260502203048 | 21 | 39 | 3.2 | 14.5 | 0.00 | 0.00 | 0.00 | 57 | 1014.1 |
| 20260502202538 | 21 | 90 | 4.8 | 14.5 | 0.00 | 0.00 | 0.00 | 57 | 1014.1 |
| 20260502202036 | 21 | 257 | 1.6 | 9.7 | 0.00 | 0.00 | 0.00 | 56 | 1014.2 |
| 20260502201542 | 21 | 0 | 1.6 | 9.7 | 0.00 | 0.00 | 0.00 | 56 | 1014.2 |
| 20260502201036 | 21 | 3 | 4.8 | 8.0 | 0.00 | 0.00 | 0.00 | 55 | 1014.4 |
| 20260502200536 | 22 | 112 | 3.2 | 12.9 | 0.00 | 0.00 | 0.00 | 53 | 1014.4 |
| 20260502200048 | 22 | 45 | 6.4 | 12.9 | 0.00 | 0.00 | 0.00 | 52 | 1014.4 |
| 20260502195536 | 23 | 60 | 3.2 | 8.0 | 0.00 | 0.00 | 0.00 | 50 | 1014.5 |
| 20260502195035 | 23 | 110 | 3.2 | 4.8 | 0.00 | 0.00 | 0.00 | 52 | 1014.6 |
| 20260502194552 | 23 | 114 | 3.2 | 4.8 | 0.00 | 0.00 | 0.00 | 53 | 1014.6 |
| 20260502194036 | 22 | 122 | 1.6 | 4.8 | 0.00 | 0.00 | 0.00 | 54 | 1014.7 |
| 20260502193536 | 22 | 114 | 3.2 | 4.8 | 0.00 | 0.00 | 0.00 | 54 | 1014.7 |